sensor_id;sensor_type;location;lat;lon;timestamp;temperature;humidity
22192;DHT22;11261;52.456;10.850;2023-03-20T00:02:03;12.10;99.90
22192;DHT22;11261;52.456;10.850;2023-03-20T00:04:32;12.20;99.90
22192;DHT22;11261;52.456;10.850;2023-03-20T00:07:02;12.20;99.90
22192;DHT22;11261;52.456;10.850;2023-03-20T00:09:30;12.10;99.90
22192;DHT22;11261;52.456;10.850;2023-03-20T00:11:58;12.00;99.90
22192;DHT22;11261;52.456;10.850;2023-03-20T00:14:27;12.00;99.90
22192;DHT22;11261;52.456;10.850;2023-03-20T00:16:56;12.00;99.90
22192;DHT22;11261;52.456;10.850;2023-03-20T00:19:25;11.90;99.90
22192;DHT22;11261;52.456;10.850;2023-03-20T00:21:55;11.80;99.90
22192;DHT22;11261;52.456;10.850;2023-03-20T00:24:25;11.90;99.90
22192;DHT22;11261;52.456;10.850;2023-03-20T00:26:54;11.90;99.90
22192;DHT22;11261;52.456;10.850;2023-03-20T00:29:24;11.80;99.90
22192;DHT22;11261;52.456;10.850;2023-03-20T00:31:54;11.80;99.90
22192;DHT22;11261;52.456;10.850;2023-03-20T00:34:24;11.80;99.90
22192;DHT22;11261;52.456;10.850;2023-03-20T00:36:53;11.90;99.90
22192;DHT22;11261;52.456;10.850;2023-03-20T00:39:22;11.90;99.90
22192;DHT22;11261;52.456;10.850;2023-03-20T00:41:54;11.90;99.90
22192;DHT22;11261;52.456;10.850;2023-03-20T00:44:24;11.90;99.90
22192;DHT22;11261;52.456;10.850;2023-03-20T00:46:55;11.90;99.90
22192;DHT22;11261;52.456;10.850;2023-03-20T00:49:26;11.80;99.90
22192;DHT22;11261;52.456;10.850;2023-03-20T00:51:55;11.90;99.90
22192;DHT22;11261;52.456;10.850;2023-03-20T00:54:24;11.90;99.90
22192;DHT22;11261;52.456;10.850;2023-03-20T00:56:58;11.90;99.90
22192;DHT22;11261;52.456;10.850;2023-03-20T00:59:29;11.90;99.90
22192;DHT22;11261;52.456;10.850;2023-03-20T01:01:59;12.00;99.90
22192;DHT22;11261;52.456;10.850;2023-03-20T01:04:34;11.90;99.90
22192;DHT22;11261;52.456;10.850;2023-03-20T01:07:03;11.80;99.90
22192;DHT22;11261;52.456;10.850;2023-03-20T01:09:32;11.70;99.90
22192;DHT22;11261;52.456;10.850;2023-03-20T01:12:02;11.70;99.90
22192;DHT22;11261;52.456;10.850;2023-03-20T01:14:31;11.80;99.90
22192;DHT22;11261;52.456;10.850;2023-03-20T01:16:59;11.70;99.90
22192;DHT22;11261;52.456;10.850;2023-03-20T01:19:27;11.70;99.90
22192;DHT22;11261;52.456;10.850;2023-03-20T01:21:55;11.70;99.90
22192;DHT22;11261;52.456;10.850;2023-03-20T01:24:23;11.50;99.90
22192;DHT22;11261;52.456;10.850;2023-03-20T01:26:52;11.50;99.90
22192;DHT22;11261;52.456;10.850;2023-03-20T01:29:23;11.50;99.90
22192;DHT22;11261;52.456;10.850;2023-03-20T01:31:53;11.40;99.90
22192;DHT22;11261;52.456;10.850;2023-03-20T01:34:21;11.40;99.90
22192;DHT22;11261;52.456;10.850;2023-03-20T01:36:52;11.40;99.90
22192;DHT22;11261;52.456;10.850;2023-03-20T01:39:21;11.40;99.90
22192;DHT22;11261;52.456;10.850;2023-03-20T01:41:53;11.30;99.90
22192;DHT22;11261;52.456;10.850;2023-03-20T01:44:24;11.30;99.90
22192;DHT22;11261;52.456;10.850;2023-03-20T01:46:54;11.20;99.90
22192;DHT22;11261;52.456;10.850;2023-03-20T01:52:27;11.30;99.90
22192;DHT22;11261;52.456;10.850;2023-03-20T01:54:56;11.20;99.90
22192;DHT22;11261;52.456;10.850;2023-03-20T01:57:24;11.20;99.90
22192;DHT22;11261;52.456;10.850;2023-03-20T01:59:57;11.10;99.90
22192;DHT22;11261;52.456;10.850;2023-03-20T02:02:29;10.90;99.90
22192;DHT22;11261;52.456;10.850;2023-03-20T02:05:02;10.90;99.90
22192;DHT22;11261;52.456;10.850;2023-03-20T02:07:33;10.80;99.90
22192;DHT22;11261;52.456;10.850;2023-03-20T02:10:02;10.70;99.90
22192;DHT22;11261;52.456;10.850;2023-03-20T02:12:31;10.70;99.90
22192;DHT22;11261;52.456;10.850;2023-03-20T02:15:02;10.70;99.90
22192;DHT22;11261;52.456;10.850;2023-03-20T02:17:31;10.70;99.90
22192;DHT22;11261;52.456;10.850;2023-03-20T02:20:06;10.60;99.90
22192;DHT22;11261;52.456;10.850;2023-03-20T02:23:16;10.60;99.90
22192;DHT22;11261;52.456;10.850;2023-03-20T02:26:08;10.50;99.90
22192;DHT22;11261;52.456;10.850;2023-03-20T02:32:08;10.10;99.90
22192;DHT22;11261;52.456;10.850;2023-03-20T02:41:13;9.90;99.90
22192;DHT22;11261;52.456;10.850;2023-03-20T02:43:52;9.90;99.90
22192;DHT22;11261;52.456;10.850;2023-03-20T02:46:31;9.90;99.90
22192;DHT22;11261;52.456;10.850;2023-03-20T02:49:07;10.00;99.90
22192;DHT22;11261;52.456;10.850;2023-03-20T02:51:39;10.00;99.90
22192;DHT22;11261;52.456;10.850;2023-03-20T02:54:12;10.00;99.90
22192;DHT22;11261;52.456;10.850;2023-03-20T02:56:56;9.90;99.90
22192;DHT22;11261;52.456;10.850;2023-03-20T02:59:31;10.10;99.90
22192;DHT22;11261;52.456;10.850;2023-03-20T03:02:06;10.00;99.90
22192;DHT22;11261;52.456;10.850;2023-03-20T03:04:39;10.00;99.90
22192;DHT22;11261;52.456;10.850;2023-03-20T03:07:10;10.10;99.90
22192;DHT22;11261;52.456;10.850;2023-03-20T03:09:44;10.10;99.90
22192;DHT22;11261;52.456;10.850;2023-03-20T03:12:17;10.10;99.90
22192;DHT22;11261;52.456;10.850;2023-03-20T03:14:47;10.20;99.90
22192;DHT22;11261;52.456;10.850;2023-03-20T03:17:17;10.00;99.90
22192;DHT22;11261;52.456;10.850;2023-03-20T03:19:49;9.90;99.90
22192;DHT22;11261;52.456;10.850;2023-03-20T03:22:18;10.00;99.90
22192;DHT22;11261;52.456;10.850;2023-03-20T03:24:48;10.00;99.90
22192;DHT22;11261;52.456;10.850;2023-03-20T03:27:22;10.00;99.90
22192;DHT22;11261;52.456;10.850;2023-03-20T03:29:54;10.00;99.90
22192;DHT22;11261;52.456;10.850;2023-03-20T03:32:26;10.10;99.90
22192;DHT22;11261;52.456;10.850;2023-03-20T03:34:55;10.20;99.90
22192;DHT22;11261;52.456;10.850;2023-03-20T03:37:32;10.10;99.90
22192;DHT22;11261;52.456;10.850;2023-03-20T03:40:09;10.20;99.90
22192;DHT22;11261;52.456;10.850;2023-03-20T03:42:49;10.10;99.90
22192;DHT22;11261;52.456;10.850;2023-03-20T03:45:23;10.10;99.90
22192;DHT22;11261;52.456;10.850;2023-03-20T03:47:58;9.90;99.90
22192;DHT22;11261;52.456;10.850;2023-03-20T03:50:30;10.10;99.90
22192;DHT22;11261;52.456;10.850;2023-03-20T03:53:02;9.90;99.90
22192;DHT22;11261;52.456;10.850;2023-03-20T03:55:36;9.80;99.90
22192;DHT22;11261;52.456;10.850;2023-03-20T03:58:10;9.90;99.90
22192;DHT22;11261;52.456;10.850;2023-03-20T04:00:41;10.00;99.90
22192;DHT22;11261;52.456;10.850;2023-03-20T04:03:12;10.00;99.90
22192;DHT22;11261;52.456;10.850;2023-03-20T04:05:43;10.00;99.90
22192;DHT22;11261;52.456;10.850;2023-03-20T04:08:13;9.90;99.90
22192;DHT22;11261;52.456;10.850;2023-03-20T04:10:43;10.00;99.90
22192;DHT22;11261;52.456;10.850;2023-03-20T04:13:13;9.90;99.90
22192;DHT22;11261;52.456;10.850;2023-03-20T04:15:42;9.90;99.90
22192;DHT22;11261;52.456;10.850;2023-03-20T04:18:14;9.80;99.90
22192;DHT22;11261;52.456;10.850;2023-03-20T04:20:44;9.90;99.90
22192;DHT22;11261;52.456;10.850;2023-03-20T04:23:12;9.90;99.90
22192;DHT22;11261;52.456;10.850;2023-03-20T04:25:41;9.80;99.90
22192;DHT22;11261;52.456;10.850;2023-03-20T04:28:09;9.90;99.90
22192;DHT22;11261;52.456;10.850;2023-03-20T04:30:39;9.90;99.90
22192;DHT22;11261;52.456;10.850;2023-03-20T04:33:09;9.80;99.90
22192;DHT22;11261;52.456;10.850;2023-03-20T04:35:38;9.80;99.90
22192;DHT22;11261;52.456;10.850;2023-03-20T04:38:06;9.80;99.90
22192;DHT22;11261;52.456;10.850;2023-03-20T04:40:34;9.80;99.90
22192;DHT22;11261;52.456;10.850;2023-03-20T04:43:03;10.00;99.90
22192;DHT22;11261;52.456;10.850;2023-03-20T04:45:31;9.90;99.90
22192;DHT22;11261;52.456;10.850;2023-03-20T04:48:01;10.00;99.90
22192;DHT22;11261;52.456;10.850;2023-03-20T04:50:29;10.00;99.90
22192;DHT22;11261;52.456;10.850;2023-03-20T04:52:58;9.90;99.90
22192;DHT22;11261;52.456;10.850;2023-03-20T04:55:26;10.00;99.90
22192;DHT22;11261;52.456;10.850;2023-03-20T04:57:54;9.90;99.90
22192;DHT22;11261;52.456;10.850;2023-03-20T05:00:23;10.00;99.90
22192;DHT22;11261;52.456;10.850;2023-03-20T05:02:52;9.90;99.90
22192;DHT22;11261;52.456;10.850;2023-03-20T05:05:21;9.90;99.90
22192;DHT22;11261;52.456;10.850;2023-03-20T05:07:50;9.90;99.90
22192;DHT22;11261;52.456;10.850;2023-03-20T05:10:18;9.80;99.90
22192;DHT22;11261;52.456;10.850;2023-03-20T05:12:47;9.80;99.90
22192;DHT22;11261;52.456;10.850;2023-03-20T05:15:15;9.80;99.90
22192;DHT22;11261;52.456;10.850;2023-03-20T05:17:43;9.70;99.90
22192;DHT22;11261;52.456;10.850;2023-03-20T05:20:12;9.70;99.90
22192;DHT22;11261;52.456;10.850;2023-03-20T05:22:42;9.70;99.90
22192;DHT22;11261;52.456;10.850;2023-03-20T05:25:10;9.70;99.90
22192;DHT22;11261;52.456;10.850;2023-03-20T05:27:38;9.70;99.90
22192;DHT22;11261;52.456;10.850;2023-03-20T05:30:08;9.70;99.90
22192;DHT22;11261;52.456;10.850;2023-03-20T05:32:36;9.70;99.90
22192;DHT22;11261;52.456;10.850;2023-03-20T05:35:06;9.60;99.90
22192;DHT22;11261;52.456;10.850;2023-03-20T05:37:34;9.60;99.90
22192;DHT22;11261;52.456;10.850;2023-03-20T05:40:06;9.60;99.90
22192;DHT22;11261;52.456;10.850;2023-03-20T05:42:34;9.60;99.90
22192;DHT22;11261;52.456;10.850;2023-03-20T05:45:03;9.60;99.90
22192;DHT22;11261;52.456;10.850;2023-03-20T05:47:31;9.70;99.90
22192;DHT22;11261;52.456;10.850;2023-03-20T05:50:00;9.60;99.90
22192;DHT22;11261;52.456;10.850;2023-03-20T05:52:28;9.60;99.90
22192;DHT22;11261;52.456;10.850;2023-03-20T05:54:56;9.70;99.90
22192;DHT22;11261;52.456;10.850;2023-03-20T05:57:26;9.80;99.90
22192;DHT22;11261;52.456;10.850;2023-03-20T05:59:54;9.80;99.90
22192;DHT22;11261;52.456;10.850;2023-03-20T06:02:22;9.90;99.90
22192;DHT22;11261;52.456;10.850;2023-03-20T06:04:51;9.90;99.90
22192;DHT22;11261;52.456;10.850;2023-03-20T06:07:19;10.00;99.90
22192;DHT22;11261;52.456;10.850;2023-03-20T06:09:47;10.20;99.90
22192;DHT22;11261;52.456;10.850;2023-03-20T06:12:16;10.20;99.90
22192;DHT22;11261;52.456;10.850;2023-03-20T06:14:46;10.10;99.90
22192;DHT22;11261;52.456;10.850;2023-03-20T06:17:14;10.00;99.90
22192;DHT22;11261;52.456;10.850;2023-03-20T06:19:42;10.00;99.90
22192;DHT22;11261;52.456;10.850;2023-03-20T06:22:11;10.10;99.90
22192;DHT22;11261;52.456;10.850;2023-03-20T06:24:39;10.00;99.90
22192;DHT22;11261;52.456;10.850;2023-03-20T06:27:07;9.90;99.90
22192;DHT22;11261;52.456;10.850;2023-03-20T06:29:36;9.90;99.90
22192;DHT22;11261;52.456;10.850;2023-03-20T06:32:07;9.90;99.90
22192;DHT22;11261;52.456;10.850;2023-03-20T06:34:36;10.00;99.90
22192;DHT22;11261;52.456;10.850;2023-03-20T06:37:05;10.00;99.90
22192;DHT22;11261;52.456;10.850;2023-03-20T06:39:33;10.00;99.90
22192;DHT22;11261;52.456;10.850;2023-03-20T06:42:02;10.10;99.90
22192;DHT22;11261;52.456;10.850;2023-03-20T06:44:30;10.00;99.90
22192;DHT22;11261;52.456;10.850;2023-03-20T06:46:59;10.10;99.90
22192;DHT22;11261;52.456;10.850;2023-03-20T06:49:28;10.20;99.90
22192;DHT22;11261;52.456;10.850;2023-03-20T06:51:56;10.40;99.90
22192;DHT22;11261;52.456;10.850;2023-03-20T06:54:26;10.40;99.90
22192;DHT22;11261;52.456;10.850;2023-03-20T06:56:54;10.30;99.90
22192;DHT22;11261;52.456;10.850;2023-03-20T06:59:22;10.30;99.90
22192;DHT22;11261;52.456;10.850;2023-03-20T07:01:50;10.30;99.90
22192;DHT22;11261;52.456;10.850;2023-03-20T07:04:19;10.30;99.90
22192;DHT22;11261;52.456;10.850;2023-03-20T07:06:49;10.30;99.90
22192;DHT22;11261;52.456;10.850;2023-03-20T07:09:17;10.30;99.90
22192;DHT22;11261;52.456;10.850;2023-03-20T07:11:47;10.30;99.90
22192;DHT22;11261;52.456;10.850;2023-03-20T07:14:16;10.30;99.90
22192;DHT22;11261;52.456;10.850;2023-03-20T07:16:44;10.30;99.90
22192;DHT22;11261;52.456;10.850;2023-03-20T07:19:12;10.30;99.90
22192;DHT22;11261;52.456;10.850;2023-03-20T07:21:40;10.30;99.90
22192;DHT22;11261;52.456;10.850;2023-03-20T07:24:10;10.30;99.90
22192;DHT22;11261;52.456;10.850;2023-03-20T07:26:39;10.40;99.90
22192;DHT22;11261;52.456;10.850;2023-03-20T07:29:07;10.40;99.90
22192;DHT22;11261;52.456;10.850;2023-03-20T07:31:35;10.40;99.90
22192;DHT22;11261;52.456;10.850;2023-03-20T07:34:04;10.50;99.90
22192;DHT22;11261;52.456;10.850;2023-03-20T07:36:32;10.50;99.90
22192;DHT22;11261;52.456;10.850;2023-03-20T07:39:00;10.40;99.90
22192;DHT22;11261;52.456;10.850;2023-03-20T07:41:30;10.50;99.90
22192;DHT22;11261;52.456;10.850;2023-03-20T07:43:58;10.50;99.90
22192;DHT22;11261;52.456;10.850;2023-03-20T07:46:26;10.50;99.90
22192;DHT22;11261;52.456;10.850;2023-03-20T07:48:55;10.50;99.90
22192;DHT22;11261;52.456;10.850;2023-03-20T07:51:24;10.50;99.90
22192;DHT22;11261;52.456;10.850;2023-03-20T07:53:52;10.60;99.90
22192;DHT22;11261;52.456;10.850;2023-03-20T07:56:20;10.60;99.90
22192;DHT22;11261;52.456;10.850;2023-03-20T07:58:50;10.70;99.90
22192;DHT22;11261;52.456;10.850;2023-03-20T08:01:18;10.70;99.90
22192;DHT22;11261;52.456;10.850;2023-03-20T08:03:47;10.60;99.90
22192;DHT22;11261;52.456;10.850;2023-03-20T08:06:15;10.70;99.90
22192;DHT22;11261;52.456;10.850;2023-03-20T08:08:43;10.70;99.90
22192;DHT22;11261;52.456;10.850;2023-03-20T08:11:12;10.70;99.90
22192;DHT22;11261;52.456;10.850;2023-03-20T08:13:40;10.70;99.90
22192;DHT22;11261;52.456;10.850;2023-03-20T08:16:10;10.70;99.90
22192;DHT22;11261;52.456;10.850;2023-03-20T08:18:38;10.70;99.90
22192;DHT22;11261;52.456;10.850;2023-03-20T08:21:07;10.80;99.90
22192;DHT22;11261;52.456;10.850;2023-03-20T08:23:36;10.80;99.90
22192;DHT22;11261;52.456;10.850;2023-03-20T08:26:04;10.80;99.90
22192;DHT22;11261;52.456;10.850;2023-03-20T08:28:32;10.80;99.90
22192;DHT22;11261;52.456;10.850;2023-03-20T08:31:15;10.70;99.90
22192;DHT22;11261;52.456;10.850;2023-03-20T08:33:43;10.70;99.90
22192;DHT22;11261;52.456;10.850;2023-03-20T08:36:12;10.80;99.90
22192;DHT22;11261;52.456;10.850;2023-03-20T08:38:42;10.80;99.90
22192;DHT22;11261;52.456;10.850;2023-03-20T08:41:10;10.90;99.90
22192;DHT22;11261;52.456;10.850;2023-03-20T08:43:38;10.80;99.90
22192;DHT22;11261;52.456;10.850;2023-03-20T08:46:07;10.90;99.90
22192;DHT22;11261;52.456;10.850;2023-03-20T08:48:37;10.80;99.90
22192;DHT22;11261;52.456;10.850;2023-03-20T08:51:05;10.80;99.90
22192;DHT22;11261;52.456;10.850;2023-03-20T08:53:34;10.80;99.90
22192;DHT22;11261;52.456;10.850;2023-03-20T08:56:03;10.90;99.90
22192;DHT22;11261;52.456;10.850;2023-03-20T08:58:31;10.90;99.90
22192;DHT22;11261;52.456;10.850;2023-03-20T09:01:02;10.90;99.90
22192;DHT22;11261;52.456;10.850;2023-03-20T09:03:31;11.00;99.90
22192;DHT22;11261;52.456;10.850;2023-03-20T09:06:00;11.10;99.90
22192;DHT22;11261;52.456;10.850;2023-03-20T09:08:29;11.10;99.90
22192;DHT22;11261;52.456;10.850;2023-03-20T09:10:58;11.20;99.90
22192;DHT22;11261;52.456;10.850;2023-03-20T09:13:26;11.20;99.90
22192;DHT22;11261;52.456;10.850;2023-03-20T09:15:55;11.30;99.90
22192;DHT22;11261;52.456;10.850;2023-03-20T09:18:24;11.20;99.90
22192;DHT22;11261;52.456;10.850;2023-03-20T09:20:52;11.30;99.90
22192;DHT22;11261;52.456;10.850;2023-03-20T09:23:23;11.30;99.90
22192;DHT22;11261;52.456;10.850;2023-03-20T09:25:51;11.30;99.90
22192;DHT22;11261;52.456;10.850;2023-03-20T09:28:20;11.30;99.90
22192;DHT22;11261;52.456;10.850;2023-03-20T09:30:48;11.40;99.90
22192;DHT22;11261;52.456;10.850;2023-03-20T09:33:16;11.50;99.90
22192;DHT22;11261;52.456;10.850;2023-03-20T09:35:45;11.50;99.90
22192;DHT22;11261;52.456;10.850;2023-03-20T09:38:13;11.60;99.90
22192;DHT22;11261;52.456;10.850;2023-03-20T09:40:50;11.50;99.90
22192;DHT22;11261;52.456;10.850;2023-03-20T09:43:28;11.60;99.90
22192;DHT22;11261;52.456;10.850;2023-03-20T09:46:08;11.60;99.90
22192;DHT22;11261;52.456;10.850;2023-03-20T09:48:46;11.60;99.90
22192;DHT22;11261;52.456;10.850;2023-03-20T09:51:22;11.60;99.90
22192;DHT22;11261;52.456;10.850;2023-03-20T09:53:54;11.60;99.90
22192;DHT22;11261;52.456;10.850;2023-03-20T09:56:29;11.70;99.90
22192;DHT22;11261;52.456;10.850;2023-03-20T09:59:00;11.60;99.90
22192;DHT22;11261;52.456;10.850;2023-03-20T10:01:35;11.70;99.90
22192;DHT22;11261;52.456;10.850;2023-03-20T10:04:10;11.70;99.90
22192;DHT22;11261;52.456;10.850;2023-03-20T10:06:39;11.80;99.90
22192;DHT22;11261;52.456;10.850;2023-03-20T10:09:14;11.80;99.90
22192;DHT22;11261;52.456;10.850;2023-03-20T10:14:55;11.70;99.90
22192;DHT22;11261;52.456;10.850;2023-03-20T10:17:43;11.80;99.90
22192;DHT22;11261;52.456;10.850;2023-03-20T10:20:24;11.70;99.90
22192;DHT22;11261;52.456;10.850;2023-03-20T10:22:56;11.60;99.90
22192;DHT22;11261;52.456;10.850;2023-03-20T10:25:29;11.60;99.90
22192;DHT22;11261;52.456;10.850;2023-03-20T10:28:02;11.60;99.90
22192;DHT22;11261;52.456;10.850;2023-03-20T10:30:42;11.60;99.90
22192;DHT22;11261;52.456;10.850;2023-03-20T10:33:21;11.60;99.90
22192;DHT22;11261;52.456;10.850;2023-03-20T10:36:02;11.50;99.90
22192;DHT22;11261;52.456;10.850;2023-03-20T10:38:40;11.40;99.90
22192;DHT22;11261;52.456;10.850;2023-03-20T10:41:15;11.50;99.90
22192;DHT22;11261;52.456;10.850;2023-03-20T10:43:48;11.50;99.90
22192;DHT22;11261;52.456;10.850;2023-03-20T10:46:20;11.40;99.90
22192;DHT22;11261;52.456;10.850;2023-03-20T10:48:56;11.40;99.90
22192;DHT22;11261;52.456;10.850;2023-03-20T10:51:37;11.30;99.90
22192;DHT22;11261;52.456;10.850;2023-03-20T10:54:16;11.30;99.90
22192;DHT22;11261;52.456;10.850;2023-03-20T10:56:47;11.30;99.90
22192;DHT22;11261;52.456;10.850;2023-03-20T10:59:21;11.30;99.90
22192;DHT22;11261;52.456;10.850;2023-03-20T11:01:50;11.30;99.90
22192;DHT22;11261;52.456;10.850;2023-03-20T11:04:18;11.30;99.90
22192;DHT22;11261;52.456;10.850;2023-03-20T11:06:51;11.30;99.90
22192;DHT22;11261;52.456;10.850;2023-03-20T11:09:22;11.40;99.90
22192;DHT22;11261;52.456;10.850;2023-03-20T11:11:51;11.40;99.90
22192;DHT22;11261;52.456;10.850;2023-03-20T11:14:27;11.50;99.90
22192;DHT22;11261;52.456;10.850;2023-03-20T11:17:00;11.50;99.90
22192;DHT22;11261;52.456;10.850;2023-03-20T11:19:33;11.60;99.90
22192;DHT22;11261;52.456;10.850;2023-03-20T11:22:07;11.80;99.90
22192;DHT22;11261;52.456;10.850;2023-03-20T11:24:39;11.70;99.90
22192;DHT22;11261;52.456;10.850;2023-03-20T11:27:09;11.60;99.90
22192;DHT22;11261;52.456;10.850;2023-03-20T11:29:41;11.60;99.90
22192;DHT22;11261;52.456;10.850;2023-03-20T11:32:21;11.70;99.90
22192;DHT22;11261;52.456;10.850;2023-03-20T11:34:54;11.80;99.90
22192;DHT22;11261;52.456;10.850;2023-03-20T11:37:25;11.70;99.90
22192;DHT22;11261;52.456;10.850;2023-03-20T11:39:59;11.80;99.90
22192;DHT22;11261;52.456;10.850;2023-03-20T11:42:29;11.70;99.90
22192;DHT22;11261;52.456;10.850;2023-03-20T11:45:01;11.60;99.90
22192;DHT22;11261;52.456;10.850;2023-03-20T11:47:32;11.60;99.90
22192;DHT22;11261;52.456;10.850;2023-03-20T11:50:02;11.70;99.90
22192;DHT22;11261;52.456;10.850;2023-03-20T11:52:33;11.70;99.90
22192;DHT22;11261;52.456;10.850;2023-03-20T11:55:05;11.70;99.90
22192;DHT22;11261;52.456;10.850;2023-03-20T11:57:35;11.80;99.90
22192;DHT22;11261;52.456;10.850;2023-03-20T12:00:16;11.90;99.90
22192;DHT22;11261;52.456;10.850;2023-03-20T12:02:45;12.00;99.90
22192;DHT22;11261;52.456;10.850;2023-03-20T12:05:28;12.10;99.90
22192;DHT22;11261;52.456;10.850;2023-03-20T12:08:00;12.10;99.90
22192;DHT22;11261;52.456;10.850;2023-03-20T12:10:33;12.10;99.90
22192;DHT22;11261;52.456;10.850;2023-03-20T12:13:06;12.10;99.90
22192;DHT22;11261;52.456;10.850;2023-03-20T12:15:43;12.10;99.90
22192;DHT22;11261;52.456;10.850;2023-03-20T12:18:19;12.20;99.90
22192;DHT22;11261;52.456;10.850;2023-03-20T12:21:00;12.10;99.90
22192;DHT22;11261;52.456;10.850;2023-03-20T12:23:32;12.30;99.90
22192;DHT22;11261;52.456;10.850;2023-03-20T12:26:04;12.50;99.90
22192;DHT22;11261;52.456;10.850;2023-03-20T12:28:38;12.80;99.90
22192;DHT22;11261;52.456;10.850;2023-03-20T12:31:19;12.80;99.90
22192;DHT22;11261;52.456;10.850;2023-03-20T12:33:52;12.70;99.90
22192;DHT22;11261;52.456;10.850;2023-03-20T12:36:27;12.90;99.90
22192;DHT22;11261;52.456;10.850;2023-03-20T12:38:56;12.70;99.90
22192;DHT22;11261;52.456;10.850;2023-03-20T12:41:28;12.60;99.90
22192;DHT22;11261;52.456;10.850;2023-03-20T12:44:15;12.60;99.90
22192;DHT22;11261;52.456;10.850;2023-03-20T12:46:52;12.70;99.90
22192;DHT22;11261;52.456;10.850;2023-03-20T12:49:31;12.70;99.90
22192;DHT22;11261;52.456;10.850;2023-03-20T12:52:09;12.70;99.90
22192;DHT22;11261;52.456;10.850;2023-03-20T12:55:00;12.70;99.90
22192;DHT22;11261;52.456;10.850;2023-03-20T12:57:36;12.60;99.90
22192;DHT22;11261;52.456;10.850;2023-03-20T13:00:18;12.70;99.90
22192;DHT22;11261;52.456;10.850;2023-03-20T13:03:04;12.80;99.90
22192;DHT22;11261;52.456;10.850;2023-03-20T13:05:41;12.70;99.90
22192;DHT22;11261;52.456;10.850;2023-03-20T13:11:16;13.00;99.90
22192;DHT22;11261;52.456;10.850;2023-03-20T13:13:51;13.10;99.90
22192;DHT22;11261;52.456;10.850;2023-03-20T13:16:28;13.10;99.90
22192;DHT22;11261;52.456;10.850;2023-03-20T13:19:06;13.10;99.90
22192;DHT22;11261;52.456;10.850;2023-03-20T13:21:41;13.20;99.90
22192;DHT22;11261;52.456;10.850;2023-03-20T13:24:21;13.00;99.90
22192;DHT22;11261;52.456;10.850;2023-03-20T13:27:00;13.10;99.90
22192;DHT22;11261;52.456;10.850;2023-03-20T13:29:38;13.00;99.90
22192;DHT22;11261;52.456;10.850;2023-03-20T13:32:16;13.10;99.90
22192;DHT22;11261;52.456;10.850;2023-03-20T13:35:05;13.10;99.90
22192;DHT22;11261;52.456;10.850;2023-03-20T13:37:39;13.10;99.90
22192;DHT22;11261;52.456;10.850;2023-03-20T13:40:13;13.20;99.90
22192;DHT22;11261;52.456;10.850;2023-03-20T13:42:48;13.00;99.90
22192;DHT22;11261;52.456;10.850;2023-03-20T13:45:27;13.40;99.90
22192;DHT22;11261;52.456;10.850;2023-03-20T13:48:01;13.40;99.90
22192;DHT22;11261;52.456;10.850;2023-03-20T13:50:43;13.30;99.90
22192;DHT22;11261;52.456;10.850;2023-03-20T13:53:22;13.30;99.90
22192;DHT22;11261;52.456;10.850;2023-03-20T13:55:59;13.30;99.90
22192;DHT22;11261;52.456;10.850;2023-03-20T13:58:58;13.20;99.90
22192;DHT22;11261;52.456;10.850;2023-03-20T14:01:37;13.10;99.90
22192;DHT22;11261;52.456;10.850;2023-03-20T14:04:13;13.10;99.90
22192;DHT22;11261;52.456;10.850;2023-03-20T14:06:48;13.10;99.90
22192;DHT22;11261;52.456;10.850;2023-03-20T14:09:31;13.10;99.90
22192;DHT22;11261;52.456;10.850;2023-03-20T14:12:02;13.00;99.90
22192;DHT22;11261;52.456;10.850;2023-03-20T14:14:31;13.10;99.90
22192;DHT22;11261;52.456;10.850;2023-03-20T14:17:03;13.30;99.90
22192;DHT22;11261;52.456;10.850;2023-03-20T14:19:35;13.20;99.90
22192;DHT22;11261;52.456;10.850;2023-03-20T14:22:05;13.30;99.90
22192;DHT22;11261;52.456;10.850;2023-03-20T14:24:36;13.20;99.90
22192;DHT22;11261;52.456;10.850;2023-03-20T14:27:15;13.20;99.90
22192;DHT22;11261;52.456;10.850;2023-03-20T14:30:36;13.10;99.90
22192;DHT22;11261;52.456;10.850;2023-03-20T14:33:06;13.00;99.90
22192;DHT22;11261;52.456;10.850;2023-03-20T14:35:36;12.90;99.90
22192;DHT22;11261;52.456;10.850;2023-03-20T14:38:17;12.70;99.90
22192;DHT22;11261;52.456;10.850;2023-03-20T14:40:54;12.80;99.90
22192;DHT22;11261;52.456;10.850;2023-03-20T14:43:39;12.80;99.90
22192;DHT22;11261;52.456;10.850;2023-03-20T14:46:19;12.80;99.90
22192;DHT22;11261;52.456;10.850;2023-03-20T14:48:52;12.90;99.90
22192;DHT22;11261;52.456;10.850;2023-03-20T14:51:29;13.10;99.90
22192;DHT22;11261;52.456;10.850;2023-03-20T14:54:24;13.10;99.90
22192;DHT22;11261;52.456;10.850;2023-03-20T14:56:54;12.90;99.90
22192;DHT22;11261;52.456;10.850;2023-03-20T14:59:23;12.90;99.90
22192;DHT22;11261;52.456;10.850;2023-03-20T15:01:56;13.10;99.90
22192;DHT22;11261;52.456;10.850;2023-03-20T15:04:32;12.90;99.90
22192;DHT22;11261;52.456;10.850;2023-03-20T15:07:03;13.00;99.90
22192;DHT22;11261;52.456;10.850;2023-03-20T15:09:37;12.90;99.90
22192;DHT22;11261;52.456;10.850;2023-03-20T15:12:11;13.00;99.90
22192;DHT22;11261;52.456;10.850;2023-03-20T15:14:43;13.00;99.90
22192;DHT22;11261;52.456;10.850;2023-03-20T15:17:18;12.90;99.90
22192;DHT22;11261;52.456;10.850;2023-03-20T15:19:46;12.90;99.90
22192;DHT22;11261;52.456;10.850;2023-03-20T15:22:19;12.90;99.90
22192;DHT22;11261;52.456;10.850;2023-03-20T15:24:53;12.80;99.90
22192;DHT22;11261;52.456;10.850;2023-03-20T15:27:24;12.80;99.90
22192;DHT22;11261;52.456;10.850;2023-03-20T15:29:56;12.70;99.90
22192;DHT22;11261;52.456;10.850;2023-03-20T15:32:25;12.90;99.90
22192;DHT22;11261;52.456;10.850;2023-03-20T15:34:53;12.60;99.90
22192;DHT22;11261;52.456;10.850;2023-03-20T15:37:23;12.70;99.90
22192;DHT22;11261;52.456;10.850;2023-03-20T15:39:53;12.60;99.90
22192;DHT22;11261;52.456;10.850;2023-03-20T15:42:25;12.70;99.90
22192;DHT22;11261;52.456;10.850;2023-03-20T15:44:55;12.70;99.90
22192;DHT22;11261;52.456;10.850;2023-03-20T15:47:24;12.70;99.90
22192;DHT22;11261;52.456;10.850;2023-03-20T15:49:54;12.50;99.90
22192;DHT22;11261;52.456;10.850;2023-03-20T15:52:29;12.40;99.90
22192;DHT22;11261;52.456;10.850;2023-03-20T15:55:04;12.50;99.90
22192;DHT22;11261;52.456;10.850;2023-03-20T15:57:35;12.40;99.90
22192;DHT22;11261;52.456;10.850;2023-03-20T16:00:06;12.30;99.90
22192;DHT22;11261;52.456;10.850;2023-03-20T16:02:36;12.30;99.90
22192;DHT22;11261;52.456;10.850;2023-03-20T16:05:09;12.40;99.90
22192;DHT22;11261;52.456;10.850;2023-03-20T16:07:39;12.20;99.90